createdAt,value
2022-11-12T00:00:15.228Z,94.36
2022-11-12T00:03:04.479Z,94.26
2022-11-12T00:05:53.901Z,94.19
2022-11-12T00:08:42.040Z,94.31
2022-11-12T00:11:30.260Z,94.13
2022-11-12T00:14:17.781Z,93.94
2022-11-12T00:17:05.519Z,93.93
2022-11-12T00:19:54.226Z,93.87
2022-11-12T00:22:41.066Z,93.85
2022-11-12T00:25:28.860Z,93.93
2022-11-12T00:28:17.710Z,93.92
2022-11-12T00:31:11.368Z,93.98
2022-11-12T00:33:58.394Z,93.99
2022-11-12T00:36:46.926Z,94.03
2022-11-12T00:39:36.418Z,93.95
2022-11-12T00:42:23.111Z,94.05
2022-11-12T00:45:12.274Z,94.15
2022-11-12T00:47:59.711Z,94.21
2022-11-12T00:50:47.550Z,94.08
2022-11-12T00:53:34.767Z,94.16
2022-11-12T00:56:22.865Z,94.14
2022-11-12T00:59:10.638Z,93.88
2022-11-12T01:01:58.300Z,93.68
2022-11-12T01:04:46.533Z,93.50
2022-11-12T01:07:35.182Z,93.45
2022-11-12T01:10:22.699Z,93.40
2022-11-12T01:13:11.048Z,93.34
2022-11-12T01:15:58.958Z,93.25
2022-11-12T01:18:47.376Z,93.19
2022-11-12T01:21:40.463Z,93.10
2022-11-12T01:24:27.948Z,93.12
2022-11-12T01:27:15.636Z,92.98
2022-11-12T01:30:03.748Z,92.97
2022-11-12T01:32:51.315Z,92.93
2022-11-12T01:35:40.205Z,92.97
2022-11-12T01:38:28.156Z,92.93
2022-11-12T01:41:19.827Z,92.92
2022-11-12T01:44:19.736Z,92.93
2022-11-12T01:47:31.104Z,92.84
2022-11-12T01:50:33.507Z,92.82
2022-11-12T01:53:21.414Z,92.81
2022-11-12T01:56:08.542Z,92.77
2022-11-12T01:59:00.896Z,92.71
2022-11-12T02:01:50.285Z,92.69
2022-11-12T02:04:39.083Z,92.73
2022-11-12T02:07:26.603Z,92.76
2022-11-12T02:10:15.081Z,92.76
2022-11-12T02:13:20.708Z,92.71
2022-11-12T02:16:09.671Z,92.80
2022-11-12T02:18:56.817Z,92.79
2022-11-12T02:21:45.066Z,92.88
2022-11-12T02:24:33.588Z,93.01
2022-11-12T02:27:21.663Z,93.07
2022-11-12T02:30:10.496Z,93.14
2022-11-12T02:32:59.242Z,93.21
2022-11-12T02:35:46.610Z,93.18
2022-11-12T02:38:36.094Z,93.21
2022-11-12T02:41:23.241Z,93.28
2022-11-12T02:44:10.276Z,93.26
2022-11-12T02:46:57.444Z,93.24
2022-11-12T02:49:44.640Z,93.21
2022-11-12T02:52:32.241Z,93.23
2022-11-12T02:55:20.019Z,93.13
2022-11-12T02:58:08.234Z,92.96
2022-11-12T03:00:56.051Z,92.84
2022-11-12T03:03:44.069Z,92.77
2022-11-12T03:06:31.868Z,92.67
2022-11-12T03:09:19.252Z,92.74
2022-11-12T03:12:07.222Z,92.78
2022-11-12T03:14:56.176Z,92.77
2022-11-12T03:17:45.341Z,92.81
2022-11-12T03:20:34.829Z,92.80
2022-11-12T03:23:24.279Z,92.79
2022-11-12T03:26:11.893Z,92.78
2022-11-12T03:29:00.097Z,92.91
2022-11-12T03:31:47.599Z,92.91
2022-11-12T03:34:37.125Z,92.98
2022-11-12T03:37:26.037Z,92.94
2022-11-12T03:40:13.359Z,92.96
2022-11-12T03:43:01.633Z,92.99
2022-11-12T03:45:49.850Z,92.90
2022-11-12T03:48:37.697Z,92.79
2022-11-12T03:51:25.737Z,92.60
2022-11-12T03:54:13.363Z,92.39
2022-11-12T03:57:00.656Z,92.24
2022-11-12T03:59:48.729Z,92.28
2022-11-12T04:02:38.868Z,92.35
2022-11-12T04:05:45.082Z,92.32
2022-11-12T04:08:37.659Z,92.26
2022-11-12T04:11:25.455Z,92.35
2022-11-12T04:14:12.961Z,92.37
2022-11-12T04:17:19.065Z,92.50
2022-11-12T04:20:27.692Z,92.57
2022-11-12T04:23:15.457Z,92.62
2022-11-12T04:26:07.516Z,92.55
2022-11-12T04:29:15.150Z,92.51
2022-11-12T04:32:03.531Z,92.53
2022-11-12T04:34:50.875Z,92.49
2022-11-12T04:37:46.132Z,92.43
2022-11-12T04:40:52.617Z,92.50
2022-11-12T04:43:58.775Z,92.46
2022-11-12T04:46:46.970Z,92.41
2022-11-12T04:49:34.583Z,92.05
2022-11-12T04:52:22.411Z,92.03
2022-11-12T04:55:10.578Z,92.14
2022-11-12T04:58:00.866Z,92.16
2022-11-12T05:00:49.355Z,92.20
2022-11-12T05:03:36.438Z,92.18
2022-11-12T05:06:38.216Z,92.15
2022-11-12T05:09:27.476Z,92.21
2022-11-12T05:12:14.780Z,92.32
2022-11-12T05:15:02.427Z,92.47
2022-11-12T05:17:49.653Z,92.54
2022-11-12T05:20:38.855Z,92.57
2022-11-12T05:23:26.865Z,92.67
2022-11-12T05:26:15.159Z,92.80
2022-11-12T05:29:08.417Z,92.76
2022-11-12T05:31:54.613Z,92.75
2022-11-12T05:34:43.316Z,92.73
2022-11-12T05:37:31.366Z,92.72
2022-11-12T05:40:18.748Z,92.69
2022-11-12T05:43:06.072Z,92.73
2022-11-12T05:45:54.440Z,92.76
2022-11-12T05:48:42.558Z,92.77
2022-11-12T05:51:29.938Z,92.74
2022-11-12T05:54:18.783Z,92.77
2022-11-12T05:57:06.276Z,92.75
2022-11-12T05:59:53.844Z,92.71
2022-11-12T06:02:43.152Z,92.66
2022-11-12T06:05:33.415Z,92.69
2022-11-12T06:08:21.326Z,92.76
2022-11-12T06:11:08.506Z,92.80
2022-11-12T06:13:57.615Z,92.76
2022-11-12T06:16:45.273Z,92.77
2022-11-12T06:19:33.287Z,92.69
2022-11-12T06:22:22.715Z,92.69
2022-11-12T06:25:10.787Z,92.74
2022-11-12T06:27:58.127Z,92.78
2022-11-12T06:30:46.060Z,92.78
2022-11-12T06:33:33.910Z,92.75
2022-11-12T06:36:22.486Z,92.69
2022-11-12T06:39:11.877Z,92.64
2022-11-12T06:41:59.829Z,92.64
2022-11-12T06:44:49.216Z,92.62
2022-11-12T06:47:37.399Z,92.54
2022-11-12T06:50:25.992Z,92.44
2022-11-12T06:53:13.963Z,92.34
2022-11-12T06:56:03.732Z,92.21
2022-11-12T06:58:51.277Z,92.04
2022-11-12T07:01:39.767Z,92.02
2022-11-12T07:04:27.666Z,92.03
2022-11-12T07:07:15.353Z,91.97
2022-11-12T07:10:03.071Z,91.96
2022-11-12T07:12:53.349Z,91.83
2022-11-12T07:15:40.231Z,91.91
2022-11-12T07:18:28.103Z,92.00
2022-11-12T07:21:20.138Z,92.06
2022-11-12T07:24:08.529Z,92.19
2022-11-12T07:26:56.595Z,92.32
2022-11-12T07:29:48.636Z,92.40
2022-11-12T07:32:41.610Z,92.38
2022-11-12T07:35:26.781Z,92.28
2022-11-12T07:38:14.742Z,91.37
2022-11-12T07:41:11.711Z,90.04
2022-11-12T07:43:59.839Z,88.09
2022-11-12T07:46:47.541Z,86.11
2022-11-12T07:49:36.514Z,85.39
2022-11-12T07:52:24.272Z,84.13
2022-11-12T07:55:11.698Z,82.91
2022-11-12T07:58:00.566Z,81.76
2022-11-12T08:00:47.931Z,80.14
2022-11-12T08:03:35.822Z,79.11
2022-11-12T08:06:23.756Z,78.11
2022-11-12T08:09:12.112Z,77.71
2022-11-12T08:12:01.448Z,76.82
2022-11-12T08:14:50.423Z,76.77
2022-11-12T08:17:40.206Z,76.95
2022-11-12T08:20:28.333Z,76.32
2022-11-12T08:23:15.738Z,76.60
2022-11-12T08:26:05.654Z,76.78
2022-11-12T08:28:53.749Z,76.83
2022-11-12T08:31:41.614Z,77.00
2022-11-12T08:34:29.244Z,77.06
2022-11-12T08:37:17.880Z,77.44
2022-11-12T08:40:08.076Z,77.85
2022-11-12T08:43:05.526Z,78.33
2022-11-12T08:45:54.691Z,78.52
2022-11-12T08:48:43.434Z,78.80
2022-11-12T08:51:35.674Z,79.00
2022-11-12T08:54:25.632Z,79.14
2022-11-12T08:57:13.381Z,79.30
2022-11-12T09:00:01.457Z,79.22
2022-11-12T09:02:49.748Z,79.25
2022-11-12T09:05:37.648Z,79.11
2022-11-12T09:08:26.160Z,79.02
2022-11-12T09:11:15.638Z,79.13
2022-11-12T09:14:05.242Z,79.11
2022-11-12T09:16:54.840Z,79.21
2022-11-12T09:19:43.269Z,79.50
2022-11-12T09:22:32.878Z,79.68
2022-11-12T09:25:20.717Z,79.81
2022-11-12T09:28:12.772Z,79.93
2022-11-12T09:31:00.284Z,80.20
2022-11-12T09:33:47.591Z,80.30
2022-11-12T09:36:39.640Z,80.40
2022-11-12T09:39:26.378Z,80.38
2022-11-12T09:42:20.147Z,80.27
2022-11-12T09:45:24.879Z,80.10
2022-11-12T09:48:15.638Z,79.93
2022-11-12T09:51:07.857Z,79.72
2022-11-12T09:53:57.548Z,79.37
2022-11-12T09:56:47.341Z,79.44
2022-11-12T09:59:36.808Z,79.49
2022-11-12T10:03:01.511Z,78.96
2022-11-12T10:06:10.278Z,78.71
2022-11-12T10:09:10.758Z,78.40
2022-11-12T10:12:33.290Z,78.18
2022-11-12T10:15:47.564Z,77.92
2022-11-12T10:18:50.105Z,77.31
2022-11-12T10:22:30.965Z,77.03
2022-11-12T10:25:19.934Z,76.95
2022-11-12T10:28:33.019Z,75.65
2022-11-12T10:31:20.536Z,74.85
2022-11-12T10:34:23.155Z,74.53
2022-11-12T10:37:24.800Z,74.62
2022-11-12T10:40:33.860Z,74.65
2022-11-12T10:43:23.925Z,74.65
2022-11-12T10:46:20.063Z,74.13
2022-11-12T10:49:23.271Z,74.17
2022-11-12T10:52:24.497Z,73.51
2022-11-12T10:55:29.849Z,73.20
2022-11-12T10:58:20.055Z,72.99
2022-11-12T11:01:16.912Z,72.87
2022-11-12T11:04:04.691Z,73.22
2022-11-12T11:07:09.085Z,72.61
2022-11-12T11:10:00.153Z,72.14
2022-11-12T11:12:48.802Z,71.78
2022-11-12T11:15:36.548Z,71.52
2022-11-12T11:18:24.042Z,71.33
2022-11-12T11:21:33.345Z,71.10
2022-11-12T11:24:40.951Z,71.01
2022-11-12T11:28:15.075Z,70.89
2022-11-12T11:31:21.580Z,70.84
2022-11-12T11:34:56.060Z,70.88
2022-11-12T11:37:53.396Z,70.53
2022-11-12T11:40:47.835Z,70.72
2022-11-12T11:44:18.888Z,70.77
2022-11-12T11:47:43.962Z,70.83
2022-11-12T11:50:28.007Z,71.10
2022-11-12T11:53:38.085Z,71.50
2022-11-12T11:56:44.025Z,71.45
2022-11-12T11:59:40.614Z,71.72
2022-11-12T12:02:55.218Z,71.62
2022-11-12T12:06:09.714Z,71.80
2022-11-12T12:09:30.522Z,71.49
2022-11-12T12:12:47.816Z,71.38
2022-11-12T12:16:08.113Z,71.40
2022-11-12T12:19:41.296Z,71.43
2022-11-12T12:22:38.205Z,71.54
2022-11-12T12:25:31.195Z,71.48
2022-11-12T12:28:38.256Z,71.27
2022-11-12T12:31:29.747Z,71.29
2022-11-12T12:34:24.615Z,71.24
2022-11-12T12:37:27.958Z,71.21
2022-11-12T12:40:33.429Z,71.37
2022-11-12T12:43:32.351Z,70.93
2022-11-12T12:46:23.220Z,70.84
2022-11-12T12:49:18.777Z,70.87
2022-11-12T12:52:09.532Z,70.94
2022-11-12T12:54:57.298Z,71.14
2022-11-12T12:57:45.585Z,71.31
2022-11-12T13:00:39.826Z,71.54
2022-11-12T13:03:55.540Z,71.68
2022-11-12T13:06:51.839Z,72.00
2022-11-12T13:09:42.188Z,72.20
2022-11-12T13:13:05.724Z,72.07
2022-11-12T13:15:55.959Z,72.30
2022-11-12T13:18:56.481Z,72.82
2022-11-12T13:21:44.603Z,73.36
2022-11-12T13:25:12.665Z,73.54
2022-11-12T13:28:12.758Z,73.94
2022-11-12T13:31:01.272Z,74.02
2022-11-12T13:33:49.898Z,74.35
2022-11-12T13:36:38.171Z,74.43
2022-11-12T13:39:25.583Z,74.49
2022-11-12T13:42:37.046Z,74.48
2022-11-12T13:45:26.428Z,74.45
2022-11-12T13:48:22.550Z,75.19
2022-11-12T13:51:21.061Z,74.92
2022-11-12T13:54:32.749Z,74.78
2022-11-12T13:57:30.174Z,74.45
2022-11-12T14:00:22.517Z,73.76
2022-11-12T14:03:15.626Z,73.32
2022-11-12T14:06:10.662Z,73.04
2022-11-12T14:09:12.393Z,72.62
2022-11-12T14:12:29.210Z,72.42
2022-11-12T14:15:28.200Z,72.25
2022-11-12T14:18:26.782Z,72.30
2022-11-12T14:21:17.161Z,72.36
2022-11-12T14:24:13.308Z,72.39
2022-11-12T14:27:05.332Z,72.55
2022-11-12T14:30:21.224Z,72.75
2022-11-12T14:33:10.507Z,72.90
2022-11-12T14:36:04.503Z,73.14
2022-11-12T14:38:55.425Z,73.29
2022-11-12T14:41:45.006Z,73.35
2022-11-12T14:44:36.395Z,73.43
2022-11-12T14:47:24.049Z,73.54
2022-11-12T14:50:35.866Z,73.66
2022-11-12T14:53:37.294Z,73.52
2022-11-12T14:56:35.833Z,73.45
2022-11-12T14:59:23.947Z,73.62
2022-11-12T15:02:42.691Z,73.72
2022-11-12T15:05:18.139Z,73.99
2022-11-12T15:08:10.931Z,74.10
2022-11-12T15:11:21.867Z,74.19
2022-11-12T15:14:24.109Z,74.42
2022-11-12T15:17:29.178Z,74.47
2022-11-12T15:20:18.144Z,74.56
2022-11-12T15:23:06.553Z,74.63
2022-11-12T15:26:01.624Z,74.71
2022-11-12T15:29:17.875Z,74.79
2022-11-12T15:32:17.505Z,74.93
2022-11-12T15:35:06.172Z,75.05
2022-11-12T15:37:54.817Z,75.14
2022-11-12T15:40:46.161Z,75.24
2022-11-12T15:43:37.013Z,75.44
2022-11-12T15:46:24.119Z,75.60
2022-11-12T15:49:12.713Z,75.68
2022-11-12T15:51:59.909Z,75.85
2022-11-12T15:54:48.049Z,76.03
2022-11-12T15:57:40.091Z,76.19
2022-11-12T16:00:33.352Z,76.56
2022-11-12T16:03:21.411Z,76.61
2022-11-12T16:06:12.417Z,76.72
2022-11-12T16:09:00.362Z,76.95
2022-11-12T16:11:50.618Z,77.07
2022-11-12T16:14:39.914Z,77.26
2022-11-12T16:17:28.559Z,77.47
2022-11-12T16:20:23.074Z,77.64
2022-11-12T16:23:10.830Z,77.84
2022-11-12T16:25:59.315Z,77.98
2022-11-12T16:28:46.598Z,78.16
2022-11-12T16:31:35.653Z,78.38
2022-11-12T16:34:23.029Z,78.56
2022-11-12T16:37:13.867Z,78.88
2022-11-12T16:40:00.886Z,79.24
2022-11-12T16:42:49.009Z,79.54
2022-11-12T16:45:41.924Z,79.79
2022-11-12T16:48:29.308Z,80.06
2022-11-12T16:51:18.977Z,80.28
2022-11-12T16:54:07.537Z,80.50
2022-11-12T16:56:56.462Z,80.82
2022-11-12T16:59:44.857Z,81.10
2022-11-12T17:02:32.618Z,81.27
2022-11-12T17:05:22.550Z,81.42
2022-11-12T17:08:10.812Z,81.52
2022-11-12T17:10:58.340Z,81.68
2022-11-12T17:13:48.103Z,81.82
2022-11-12T17:16:36.173Z,82.10
2022-11-12T17:19:24.177Z,82.42
2022-11-12T17:22:11.304Z,82.78
2022-11-12T17:24:59.505Z,82.97
2022-11-12T17:27:47.108Z,83.13
2022-11-12T17:30:38.048Z,83.34
2022-11-12T17:33:26.479Z,83.65
2022-11-12T17:36:19.858Z,83.79
2022-11-12T17:39:10.203Z,84.17
2022-11-12T17:41:58.599Z,84.59
2022-11-12T17:44:46.140Z,84.86
2022-11-12T17:47:40.404Z,85.01
2022-11-12T17:50:26.841Z,85.14
2022-11-12T17:53:16.928Z,85.49
2022-11-12T17:56:04.561Z,85.81
2022-11-12T17:58:53.083Z,86.10
2022-11-12T18:01:40.543Z,86.39
2022-11-12T18:04:30.901Z,86.76
2022-11-12T18:07:19.235Z,87.12
2022-11-12T18:10:06.854Z,87.33
2022-11-12T18:12:57.599Z,87.54
2022-11-12T18:15:45.106Z,87.76
2022-11-12T18:18:32.820Z,88.04
2022-11-12T18:21:22.621Z,88.33
2022-11-12T18:24:15.253Z,88.55
2022-11-12T18:27:02.997Z,88.73
2022-11-12T18:29:50.923Z,88.90
2022-11-12T18:32:40.831Z,89.08
2022-11-12T18:35:30.012Z,89.29
2022-11-12T18:38:18.337Z,89.63
2022-11-12T18:41:12.231Z,90.05
2022-11-12T18:44:00.935Z,90.25
2022-11-12T18:46:48.944Z,90.40
2022-11-12T18:49:37.551Z,90.61
2022-11-12T18:52:24.903Z,90.80
2022-11-12T18:55:12.443Z,90.91
2022-11-12T18:58:00.045Z,91.08
2022-11-12T19:00:49.941Z,91.26
2022-11-12T19:03:37.650Z,91.52
2022-11-12T19:06:25.331Z,91.73
2022-11-12T19:09:14.779Z,91.99
2022-11-12T19:12:04.487Z,92.30
2022-11-12T19:14:53.883Z,92.55
2022-11-12T19:17:42.957Z,92.72
2022-11-12T19:20:32.141Z,93.00
2022-11-12T19:23:20.267Z,93.25
2022-11-12T19:26:11.236Z,93.47
2022-11-12T19:28:58.767Z,93.62
2022-11-12T19:31:46.783Z,93.87
2022-11-12T19:34:35.539Z,94.13
2022-11-12T19:37:38.048Z,94.32
2022-11-12T19:40:12.086Z,94.50
2022-11-12T19:42:59.868Z,94.58
2022-11-12T19:45:47.730Z,94.76
2022-11-12T19:48:35.763Z,94.90
2022-11-12T19:51:24.464Z,94.99
2022-11-12T19:54:12.885Z,95.09
2022-11-12T19:57:01.122Z,95.16
2022-11-12T19:59:49.769Z,95.24
2022-11-12T20:02:37.591Z,95.34
2022-11-12T20:05:24.767Z,95.32
2022-11-12T20:08:12.885Z,95.25
2022-11-12T20:10:59.913Z,95.29
2022-11-12T20:13:47.535Z,95.28
2022-11-12T20:16:34.812Z,95.36
2022-11-12T20:19:21.725Z,95.16
2022-11-12T20:22:10.840Z,95.12
2022-11-12T20:24:59.066Z,95.05
2022-11-12T20:27:47.704Z,95.00
2022-11-12T20:30:37.285Z,94.94
2022-11-12T20:33:25.265Z,94.97
2022-11-12T20:36:16.031Z,94.94
2022-11-12T20:39:03.140Z,94.89
2022-11-12T20:41:50.462Z,94.81
2022-11-12T20:44:38.307Z,94.77
2022-11-12T20:47:25.938Z,94.66
2022-11-12T20:50:13.426Z,94.43
2022-11-12T20:53:00.984Z,94.15
2022-11-12T20:55:48.557Z,93.98
2022-11-12T20:58:35.997Z,93.86
2022-11-12T21:01:24.004Z,93.67
2022-11-12T21:04:12.704Z,93.50
2022-11-12T21:07:05.287Z,93.46
2022-11-12T21:09:52.001Z,93.26
2022-11-12T21:12:40.968Z,93.11
2022-11-12T21:15:28.639Z,92.95
2022-11-12T21:18:17.570Z,92.74
2022-11-12T21:21:11.972Z,92.68
2022-11-12T21:24:04.908Z,92.45
2022-11-12T21:26:50.567Z,92.25
2022-11-12T21:29:40.014Z,92.08
2022-11-12T21:32:28.052Z,91.95
2022-11-12T21:35:17.197Z,91.86
2022-11-12T21:38:04.888Z,91.73
2022-11-12T21:40:54.777Z,90.77
2022-11-12T21:43:45.310Z,90.52
2022-11-12T21:46:32.922Z,90.30
2022-11-12T21:49:20.136Z,89.98
2022-11-12T21:52:10.053Z,89.93
2022-11-12T21:54:57.966Z,89.66
2022-11-12T21:57:48.243Z,89.46
2022-11-12T22:00:43.530Z,89.32
2022-11-12T22:03:25.768Z,89.27
2022-11-12T22:06:13.709Z,88.90
2022-11-12T22:09:01.272Z,88.88
2022-11-12T22:11:50.840Z,88.75
2022-11-12T22:14:38.358Z,88.69
2022-11-12T22:17:25.786Z,88.68
2022-11-12T22:20:15.899Z,88.68
2022-11-12T22:23:04.622Z,88.62
2022-11-12T22:25:53.175Z,88.26
2022-11-12T22:28:41.739Z,88.03
2022-11-12T22:31:32.299Z,87.88
2022-11-12T22:34:20.118Z,87.62
2022-11-12T22:37:08.019Z,87.56
2022-11-12T22:39:56.153Z,87.52
2022-11-12T22:42:44.056Z,87.28
2022-11-12T22:45:31.513Z,87.35
2022-11-12T22:48:18.841Z,87.40
2022-11-12T22:51:10.427Z,87.66
2022-11-12T22:54:00.012Z,87.98
2022-11-12T22:56:48.284Z,88.33
2022-11-12T22:59:35.980Z,88.53
2022-11-12T23:02:24.044Z,88.89
2022-11-12T23:05:11.140Z,89.23
2022-11-12T23:07:59.742Z,89.66
2022-11-12T23:10:49.643Z,90.21
2022-11-12T23:13:37.046Z,90.57
2022-11-12T23:16:30.558Z,91.03
2022-11-12T23:19:18.147Z,91.47
2022-11-12T23:22:08.130Z,91.81
2022-11-12T23:24:55.018Z,92.05
2022-11-12T23:27:42.856Z,92.26
2022-11-12T23:30:31.814Z,92.36
2022-11-12T23:33:19.345Z,92.42
2022-11-12T23:36:09.174Z,92.42
2022-11-12T23:38:58.244Z,92.31
2022-11-12T23:41:45.644Z,92.11
2022-11-12T23:44:33.258Z,91.91
2022-11-12T23:47:20.801Z,91.87
2022-11-12T23:50:08.804Z,91.69
2022-11-12T23:52:55.970Z,91.57
2022-11-12T23:55:44.848Z,91.58
2022-11-12T23:58:32.455Z,91.54
